Hosford, FL (32334)

4:55 PM EDT on June 27, 2017 (GMT -0400)
LAKE TALQUIN | | Change Station

Elev 75 ft 30.40 °N, 84.63 °W | Updated 29 seconds ago

Partly Cloudy
Partly Cloudy
81.0 °F
Feels Like 87 °F
N
2.7
Wind Variable Wind from East

Today
High -- | Low -- °F
--% Chance of Precip.
Yesterday
High -- | Low -- °F
Precip. -- in
Pressure 29.99 in
Visibility 10.0 miles
Clouds Scattered Clouds 4200 ft
Mostly Cloudy 11000 ft
Heat Index 87 °F
Dew Point 76 °F
Humidity 85%
Rainfall 0.07 in
Snow Depth Not available.
6:39 AM 8:45 PM
Waxing Crescent, 19% visible
SPECI KTLH 272033Z 18005KT 10SM SCT042 BKN110 24/22 A2999 RMK AO2 LTG DSNT SW TSE33 T02440222
Pressure 29.99 in
Visibility 10.0 miles
Clouds Scattered Clouds 4200 ft
Mostly Cloudy 11000 ft
Heat Index 87 °F
Dew Point 76 °F
Humidity 85%
Rainfall 0.07 in
Snow Depth Not available.
6:39 AM 8:45 PM
Waxing Crescent, 19% visible
SPECI KTLH 272033Z 18005KT 10SM SCT042 BKN110 24/22 A2999 RMK AO2 LTG DSNT SW TSE33 T02440222

Get Severe Weather Alerts

Thanks for signing up!

Be on the lookout for a verification email in your inbox.

You'll start receiving the daily forecast at 6 AM.

×

10-Day Weather Forecast

Almanac

Astronomy

Jun. 27, 2017 Rise Set
Actual Time
Civil Twilight
Nautical Twilight
Astronomical Twilight
Moon
Length of Visible Light
Length of Day
Tomorrow will be .
, % of the Moon is Illuminated

Today's Extremes

State Highs State Lows

Community

WunderPhotos

Category 6

Welcome to Category 6. This is the collective home for Weather Underground's featured writeups by Dr. Jeff Masters (right), Bob Henson (left), Chris Burt, and other regular contributors.

Nearby

Air Quality

  Air Quality AQ Index Pollutant
Not available.

Snow Depth

Station Depth Elevation

Earthquake Activity

City Distance Mag. Time & Date
Minimum magnitude displayed is 2.5.

Coastal Water Temperatures

Place Temperature

Stations

Nearby Weather Stations

Station Location Temp. Windchill Dew Point Humidity Wind Precip. Elev Updated Type
                   

Watches & Warnings

There are currently no watches in effect.